createdAt,value
2018-11-20T00:00:53.608Z,6.50
2018-11-20T00:03:31.161Z,6.60
2018-11-20T00:06:09.248Z,6.53
2018-11-20T00:08:47.261Z,6.40
2018-11-20T00:11:24.342Z,6.17
2018-11-20T00:14:02.747Z,5.90
2018-11-20T00:16:40.328Z,5.90
2018-11-20T00:19:18.152Z,6.70
2018-11-20T00:21:55.311Z,6.23
2018-11-20T00:24:37.137Z,6.00
2018-11-20T00:27:16.107Z,6.07
2018-11-20T00:29:54.144Z,5.77
2018-11-20T00:32:32.276Z,5.70
2018-11-20T00:35:10.528Z,5.80
2018-11-20T00:37:58.851Z,5.70
2018-11-20T00:40:36.259Z,5.90
2018-11-20T00:43:14.307Z,5.63
2018-11-20T00:45:57.291Z,5.40
2018-11-20T00:48:35.686Z,5.80
2018-11-20T00:51:15.849Z,6.10
2018-11-20T00:53:54.303Z,6.03
2018-11-20T00:56:42.222Z,5.30
2018-11-20T00:59:20.766Z,5.87
2018-11-20T01:01:58.159Z,5.20
2018-11-20T01:04:36.436Z,5.13
2018-11-20T01:07:14.119Z,5.30
2018-11-20T01:09:52.316Z,5.23
2018-11-20T01:12:30.761Z,5.23
2018-11-20T01:15:09.740Z,5.17
2018-11-20T01:17:48.821Z,4.97
2018-11-20T01:20:25.769Z,5.50
2018-11-20T01:23:04.734Z,4.97
2018-11-20T01:25:42.793Z,5.10
2018-11-20T01:28:23.667Z,5.00
2018-11-20T01:31:01.469Z,4.87
2018-11-20T01:33:39.432Z,4.93
2018-11-20T01:36:27.534Z,5.07
2018-11-20T01:39:05.283Z,4.60
2018-11-20T01:41:43.475Z,4.83
2018-11-20T01:44:21.334Z,4.77
2018-11-20T01:47:01.796Z,4.63
2018-11-20T01:49:39.210Z,4.37
2018-11-20T01:52:17.911Z,5.23
2018-11-20T01:54:54.318Z,4.53
2018-11-20T01:57:32.660Z,4.73
2018-11-20T02:00:08.870Z,4.60
2018-11-20T02:02:48.170Z,4.80
2018-11-20T02:05:26.263Z,4.63
2018-11-20T02:08:04.401Z,4.63
2018-11-20T02:10:42.154Z,4.63
2018-11-20T02:13:38.415Z,4.13
2018-11-20T02:16:16.306Z,4.73
2018-11-20T02:18:54.348Z,4.03
2018-11-20T02:21:32.410Z,4.23
2018-11-20T02:24:05.705Z,4.30
2018-11-20T02:26:47.706Z,4.40
2018-11-20T02:29:25.616Z,4.57
2018-11-20T02:32:03.815Z,3.63
2018-11-20T02:34:41.162Z,3.87
2018-11-20T02:37:19.005Z,3.97
2018-11-20T02:39:57.585Z,4.17
2018-11-20T02:42:45.873Z,4.10
2018-11-20T02:45:24.030Z,3.93
2018-11-20T02:48:02.414Z,3.83
2018-11-20T02:50:40.979Z,4.27
2018-11-20T02:53:19.861Z,4.17
2018-11-20T02:55:58.108Z,3.93
2018-11-20T02:58:36.587Z,4.00
2018-11-20T03:01:15.130Z,3.57
2018-11-20T03:04:03.821Z,3.73
2018-11-20T03:06:41.127Z,3.93
2018-11-20T03:09:17.232Z,3.60
2018-11-20T03:11:58.328Z,3.70
2018-11-20T03:14:36.121Z,3.60
2018-11-20T03:17:24.242Z,3.70
2018-11-20T03:20:02.447Z,3.80
2018-11-20T03:22:51.015Z,3.83
2018-11-20T03:25:47.470Z,3.83
2018-11-20T03:28:25.147Z,3.40
2018-11-20T03:31:12.453Z,3.37
2018-11-20T03:33:52.061Z,3.77
2018-11-20T03:36:29.327Z,3.53
2018-11-20T03:39:07.140Z,3.60
2018-11-20T03:41:45.438Z,3.40
2018-11-20T03:44:22.795Z,3.33
2018-11-20T03:47:00.489Z,3.60
2018-11-20T03:49:38.350Z,3.40
2018-11-20T03:52:16.373Z,3.30
2018-11-20T03:54:54.471Z,3.20
2018-11-20T03:57:32.221Z,3.60
2018-11-20T04:00:10.683Z,3.37
2018-11-20T04:02:48.386Z,3.27
2018-11-20T04:05:26.143Z,3.50
2018-11-20T04:08:04.394Z,3.17
2018-11-20T04:10:52.734Z,3.30
2018-11-20T04:13:30.340Z,3.13
2018-11-20T04:16:07.663Z,3.60
2018-11-20T04:18:47.167Z,3.27
2018-11-20T04:21:25.686Z,3.30
2018-11-20T04:24:03.499Z,3.30
2018-11-20T04:26:41.725Z,3.50
2018-11-20T04:29:19.916Z,3.17
2018-11-20T04:32:03.041Z,3.10
2018-11-20T04:34:41.836Z,3.23
2018-11-20T04:37:19.571Z,2.70
2018-11-20T04:39:57.907Z,3.40
2018-11-20T04:42:36.240Z,2.97
2018-11-20T04:45:14.756Z,2.80
2018-11-20T04:47:56.586Z,2.80
2018-11-20T04:50:34.459Z,2.77
2018-11-20T04:53:12.836Z,3.10
2018-11-20T04:55:51.111Z,3.13
2018-11-20T04:58:29.685Z,2.97
2018-11-20T05:01:15.638Z,2.97
2018-11-20T05:03:53.459Z,2.60
2018-11-20T05:06:31.381Z,3.10
2018-11-20T05:09:09.519Z,3.20
2018-11-20T05:11:57.721Z,2.73
2018-11-20T05:14:35.472Z,2.80
2018-11-20T05:17:14.262Z,2.70
2018-11-20T05:19:52.840Z,2.70
2018-11-20T05:22:31.168Z,3.00
2018-11-20T05:25:09.499Z,2.90
2018-11-20T05:27:47.781Z,2.60
2018-11-20T05:30:30.291Z,2.70
2018-11-20T05:33:08.974Z,2.50
2018-11-20T05:35:46.411Z,2.80
2018-11-20T05:38:23.175Z,2.80
2018-11-20T05:41:01.548Z,2.40
2018-11-20T05:43:39.490Z,2.70
2018-11-20T05:46:17.282Z,2.63
2018-11-20T05:49:05.680Z,2.50
2018-11-20T05:51:48.616Z,2.77
2018-11-20T05:54:34.371Z,2.60
2018-11-20T05:57:13.771Z,2.60
2018-11-20T05:59:52.286Z,2.50
2018-11-20T06:02:30.891Z,2.50
2018-11-20T06:05:09.064Z,2.40
2018-11-20T06:07:57.262Z,2.50
2018-11-20T06:10:35.452Z,2.70
2018-11-20T06:13:13.396Z,2.40
2018-11-20T06:15:51.550Z,2.30
2018-11-20T06:18:29.659Z,2.43
2018-11-20T06:21:07.778Z,2.50
2018-11-20T06:23:46.605Z,2.33
2018-11-20T06:26:24.587Z,2.50
2018-11-20T06:29:02.293Z,2.30
2018-11-20T06:31:40.225Z,2.43
2018-11-20T06:34:18.732Z,2.60
2018-11-20T06:36:56.190Z,2.50
2018-11-20T06:39:35.021Z,2.60
2018-11-20T06:42:16.488Z,2.40
2018-11-20T06:45:05.024Z,2.33
2018-11-20T06:47:42.633Z,2.40
2018-11-20T06:50:22.021Z,2.70
2018-11-20T06:53:10.701Z,2.53
2018-11-20T06:55:55.994Z,3.80
2018-11-20T06:58:34.672Z,4.40
2018-11-20T07:01:12.413Z,5.08
2018-11-20T07:03:50.890Z,3.90
2018-11-20T07:06:29.347Z,3.07
2018-11-20T07:09:07.265Z,3.47
2018-11-20T07:11:45.343Z,3.17
2018-11-20T07:14:26.152Z,3.17
2018-11-20T07:17:08.492Z,3.50
2018-11-20T07:19:46.681Z,3.00
2018-11-20T07:22:26.133Z,3.40
2018-11-20T07:25:04.194Z,4.00
2018-11-20T07:27:42.131Z,4.50
2018-11-20T07:30:20.753Z,4.67
2018-11-20T07:33:09.352Z,5.40
2018-11-20T07:35:51.549Z,5.33
2018-11-20T07:38:33.009Z,6.57
2018-11-20T07:41:10.120Z,6.00
2018-11-20T07:43:48.643Z,6.60
2018-11-20T07:46:26.046Z,5.50
2018-11-20T07:49:03.329Z,6.37
2018-11-20T07:51:41.325Z,6.17
2018-11-20T07:54:17.583Z,6.40
2018-11-20T07:56:55.155Z,6.83
2018-11-20T07:59:33.598Z,6.13
2018-11-20T08:02:14.021Z,6.50
2018-11-20T08:04:49.726Z,5.70
2018-11-20T08:07:27.987Z,5.57
2018-11-20T08:10:05.461Z,6.07
2018-11-20T08:12:43.118Z,6.60
2018-11-20T08:15:20.700Z,7.03
2018-11-20T08:17:58.883Z,6.90
2018-11-20T08:20:37.168Z,7.17
2018-11-20T08:23:15.097Z,6.33
2018-11-20T08:25:57.244Z,6.47
2018-11-20T08:28:35.132Z,6.63
2018-11-20T08:31:14.508Z,7.30
2018-11-20T08:33:52.286Z,6.83
2018-11-20T08:36:28.349Z,7.03
2018-11-20T08:39:06.265Z,6.67
2018-11-20T08:41:44.136Z,6.93
2018-11-20T08:44:22.297Z,6.57
2018-11-20T08:47:00.273Z,7.10
2018-11-20T08:49:38.268Z,7.20
2018-11-20T08:52:22.452Z,7.80
2018-11-20T08:55:00.441Z,7.80
2018-11-20T08:57:39.715Z,7.90
2018-11-20T09:00:17.616Z,7.77
2018-11-20T09:02:56.029Z,7.70
2018-11-20T09:05:34.487Z,7.80
2018-11-20T09:08:13.125Z,7.40
2018-11-20T09:10:56.622Z,7.73
2018-11-20T09:13:34.462Z,8.23
2018-11-20T09:16:12.126Z,7.97
2018-11-20T09:18:50.148Z,8.20
2018-11-20T09:21:29.664Z,8.00
2018-11-20T09:24:07.591Z,7.10
2018-11-20T09:26:45.275Z,8.07
2018-11-20T09:29:29.936Z,8.27
2018-11-20T09:32:08.702Z,9.47
2018-11-20T09:34:46.182Z,9.83
2018-11-20T09:37:24.290Z,10.23
2018-11-20T09:40:30.247Z,9.27
2018-11-20T09:43:08.758Z,12.47
2018-11-20T09:46:01.254Z,15.63
2018-11-20T09:48:45.467Z,17.80
2018-11-20T09:51:23.354Z,20.13
2018-11-20T09:54:10.745Z,20.80
2018-11-20T09:56:48.524Z,19.10
2018-11-20T09:59:27.121Z,18.20
2018-11-20T10:02:07.974Z,19.40
2018-11-20T10:04:46.636Z,22.13
2018-11-20T10:07:24.821Z,20.80
2018-11-20T10:10:02.202Z,20.67
2018-11-20T10:12:39.032Z,23.40
2018-11-20T10:15:19.776Z,24.27
2018-11-20T10:17:57.457Z,23.03
2018-11-20T10:20:35.154Z,23.90
2018-11-20T10:23:16.882Z,24.30
2018-11-20T10:25:55.385Z,24.17
2018-11-20T10:28:33.254Z,23.40
2018-11-20T10:31:11.971Z,23.83
2018-11-20T10:33:50.542Z,25.30
2018-11-20T10:36:28.261Z,23.67
2018-11-20T10:39:06.402Z,24.30
2018-11-20T10:41:44.364Z,24.50
2018-11-20T10:44:22.296Z,25.73
2018-11-20T10:47:00.098Z,28.90
2018-11-20T10:49:37.776Z,25.47
2018-11-20T10:52:25.952Z,28.77
2018-11-20T10:55:04.270Z,29.27
2018-11-20T10:57:42.020Z,29.07
2018-11-20T11:00:20.312Z,27.33
2018-11-20T11:02:58.277Z,29.13
2018-11-20T11:05:38.050Z,28.73
2018-11-20T11:08:16.393Z,30.47
2018-11-20T11:10:52.525Z,28.80
2018-11-20T11:13:30.464Z,31.60
2018-11-20T11:16:08.330Z,34.27
2018-11-20T11:18:56.550Z,34.93
2018-11-20T11:21:34.170Z,35.17
2018-11-20T11:24:13.132Z,38.73
2018-11-20T11:26:51.325Z,39.00
2018-11-20T11:29:32.432Z,40.73
2018-11-20T11:32:10.932Z,36.83
2018-11-20T11:34:49.647Z,36.77
2018-11-20T11:37:27.751Z,35.83
2018-11-20T11:40:05.350Z,37.60
2018-11-20T11:42:53.712Z,36.67
2018-11-20T11:45:31.363Z,37.73
2018-11-20T11:48:09.675Z,37.07
2018-11-20T11:50:49.731Z,37.33
2018-11-20T11:53:27.547Z,36.40
2018-11-20T11:56:15.992Z,39.17
2018-11-20T11:58:59.322Z,37.77
2018-11-20T12:04:14.212Z,33.00
2018-11-20T12:06:53.006Z,33.00
2018-11-20T12:09:31.141Z,31.67
2018-11-20T12:12:08.308Z,30.97
2018-11-20T12:14:47.186Z,32.33
2018-11-20T12:17:24.061Z,33.47
2018-11-20T12:20:02.306Z,32.33
2018-11-20T12:22:42.910Z,34.10
2018-11-20T12:25:20.528Z,33.47
2018-11-20T12:27:58.825Z,34.50
2018-11-20T12:30:36.289Z,35.43
2018-11-20T12:33:14.135Z,33.07
2018-11-20T12:35:56.575Z,32.97
2018-11-20T12:38:34.443Z,33.70
2018-11-20T12:41:12.390Z,32.50
2018-11-20T12:43:50.277Z,30.83
2018-11-20T12:46:28.193Z,32.20
2018-11-20T12:49:12.935Z,30.77
2018-11-20T12:51:51.560Z,31.13
2018-11-20T12:54:29.892Z,29.50
2018-11-20T12:57:07.103Z,29.70
2018-11-20T12:59:45.263Z,29.43
2018-11-20T13:02:23.110Z,28.97
2018-11-20T13:05:01.291Z,29.57
2018-11-20T13:07:40.495Z,27.93
2018-11-20T13:10:28.135Z,26.83
2018-11-20T13:13:06.206Z,27.97
2018-11-20T13:15:44.325Z,28.67
2018-11-20T13:18:23.247Z,29.03
2018-11-20T13:21:01.123Z,30.13
2018-11-20T13:23:42.856Z,30.27
2018-11-20T13:26:20.149Z,31.80
2018-11-20T13:28:58.476Z,33.13
2018-11-20T13:31:36.352Z,34.30
2018-11-20T13:34:20.664Z,34.33
2018-11-20T13:36:52.310Z,32.97
2018-11-20T13:39:30.228Z,33.57
2018-11-20T13:42:13.463Z,33.17
2018-11-20T13:44:54.131Z,33.43
2018-11-20T13:47:32.429Z,32.50
2018-11-20T13:50:11.811Z,32.30
2018-11-20T13:52:52.842Z,33.50
2018-11-20T13:55:40.917Z,32.80
2018-11-20T13:58:19.402Z,31.30
2018-11-20T14:01:02.023Z,30.47
2018-11-20T14:03:42.998Z,31.10
2018-11-20T14:06:19.147Z,32.17
2018-11-20T14:08:59.578Z,32.77
2018-11-20T14:11:37.119Z,31.87
2018-11-20T14:14:23.070Z,31.87
2018-11-20T14:17:01.357Z,31.07
2018-11-20T14:19:37.220Z,31.63
2018-11-20T14:22:15.169Z,31.87
2018-11-20T14:24:54.283Z,31.57
2018-11-20T14:27:32.091Z,31.17
2018-11-20T14:30:10.216Z,31.97
2018-11-20T14:32:50.148Z,29.73
2018-11-20T14:35:28.196Z,31.70
2018-11-20T14:38:06.563Z,31.33
2018-11-20T14:40:44.764Z,30.57
2018-11-20T14:43:22.845Z,32.00
2018-11-20T14:46:02.799Z,30.17
2018-11-20T14:53:53.294Z,29.30
2018-11-20T14:56:28.272Z,28.00
2018-11-20T14:59:06.421Z,29.87
2018-11-20T15:01:58.122Z,31.30
2018-11-20T15:04:36.166Z,30.90
2018-11-20T15:07:14.556Z,31.73
2018-11-20T15:09:52.302Z,33.87
2018-11-20T15:12:30.309Z,32.87
2018-11-20T15:15:10.761Z,35.33
2018-11-20T15:17:49.587Z,32.83
2018-11-20T15:20:31.827Z,34.60
2018-11-20T15:23:11.033Z,35.40
2018-11-20T15:25:49.507Z,33.23
2018-11-20T15:28:32.605Z,37.63
2018-11-20T15:31:10.370Z,37.40
2018-11-20T15:33:49.379Z,38.30
2018-11-20T15:36:27.384Z,38.67
2018-11-20T15:39:05.301Z,38.77
2018-11-20T15:41:46.664Z,41.70
2018-11-20T15:44:24.557Z,39.43
2018-11-20T15:47:03.520Z,38.97
2018-11-20T15:49:41.512Z,38.50
2018-11-20T15:52:20.541Z,37.13
2018-11-20T15:55:00.065Z,36.23
2018-11-20T15:57:38.518Z,37.30
2018-11-20T16:00:18.343Z,36.03
2018-11-20T16:02:57.454Z,34.80
2018-11-20T16:05:35.359Z,33.53
2018-11-20T16:08:13.344Z,30.37
2018-11-20T16:10:51.343Z,30.03
2018-11-20T16:13:29.508Z,27.27
2018-11-20T16:16:07.171Z,28.23
2018-11-20T16:18:45.626Z,27.63
2018-11-20T16:21:23.266Z,27.80
2018-11-20T16:24:01.365Z,25.50
2018-11-20T16:26:39.382Z,25.80
2018-11-20T16:29:17.492Z,25.00
2018-11-20T16:32:00.592Z,24.13
2018-11-20T16:34:39.227Z,23.23
2018-11-20T16:37:19.424Z,23.43
2018-11-20T16:39:57.222Z,25.27
2018-11-20T16:42:35.583Z,27.50
2018-11-20T16:45:13.297Z,28.40
2018-11-20T16:47:52.418Z,29.30
2018-11-20T16:50:30.312Z,30.10
2018-11-20T16:53:14.855Z,29.83
2018-11-20T16:55:53.369Z,31.73
2018-11-20T16:58:37.797Z,28.93
2018-11-20T17:01:15.160Z,29.83
2018-11-20T17:03:53.336Z,29.10
2018-11-20T17:06:34.852Z,29.83
2018-11-20T17:09:13.375Z,29.57
2018-11-20T17:11:51.201Z,28.77
2018-11-20T17:14:29.629Z,27.60
2018-11-20T17:17:08.118Z,27.83
2018-11-20T17:19:46.441Z,26.20
2018-11-20T17:22:27.422Z,26.10
2018-11-20T17:25:05.833Z,26.97
2018-11-20T17:27:55.112Z,26.80
2018-11-20T17:30:33.610Z,26.17
2018-11-20T17:33:13.633Z,25.93
2018-11-20T17:35:51.434Z,24.23
2018-11-20T17:38:33.890Z,24.10
2018-11-20T17:41:11.975Z,24.10
2018-11-20T17:43:50.917Z,23.60
2018-11-20T17:46:29.824Z,23.83
2018-11-20T17:49:08.453Z,22.50
2018-11-20T17:51:47.714Z,23.33
2018-11-20T17:54:25.279Z,21.90
2018-11-20T17:57:13.939Z,22.43
2018-11-20T17:59:50.904Z,22.80
2018-11-20T18:02:29.749Z,22.53
2018-11-20T18:05:15.051Z,20.63
2018-11-20T18:08:00.998Z,21.70
2018-11-20T18:10:40.019Z,21.70
2018-11-20T18:13:18.539Z,21.50
2018-11-20T18:16:07.393Z,19.70
2018-11-20T18:18:45.380Z,20.60
2018-11-20T18:21:23.904Z,19.63
2018-11-20T18:24:02.365Z,20.77
2018-11-20T18:26:40.313Z,20.60
2018-11-20T18:29:18.736Z,19.10
2018-11-20T18:31:56.856Z,19.13
2018-11-20T18:34:36.516Z,19.00
2018-11-20T18:37:14.592Z,18.07
2018-11-20T18:39:53.301Z,18.57
2018-11-20T18:42:34.244Z,18.90
2018-11-20T18:45:12.504Z,18.13
2018-11-20T18:47:50.347Z,17.67
2018-11-20T18:50:28.483Z,17.33
2018-11-20T18:53:05.775Z,17.97
2018-11-20T18:55:44.414Z,18.13
2018-11-20T18:58:33.159Z,17.43
2018-11-20T19:01:11.545Z,16.50
2018-11-20T19:03:56.146Z,16.57
2018-11-20T19:06:34.166Z,16.20
2018-11-20T19:09:13.075Z,16.70
2018-11-20T19:11:51.782Z,15.83
2018-11-20T19:14:28.458Z,16.50
2018-11-20T19:17:06.474Z,16.53
2018-11-20T19:19:48.668Z,16.20
2018-11-20T19:22:37.010Z,15.90
2018-11-20T19:25:16.859Z,15.87
2018-11-20T19:27:55.393Z,14.93
2018-11-20T19:30:33.546Z,16.03
2018-11-20T19:33:11.608Z,15.50
2018-11-20T19:35:49.754Z,15.37
2018-11-20T19:38:27.350Z,14.30
2018-11-20T19:41:05.858Z,14.60
2018-11-20T19:43:44.525Z,14.17
2018-11-20T19:46:33.433Z,14.53
2018-11-20T19:49:11.588Z,15.17
2018-11-20T19:51:50.394Z,14.37
2018-11-20T19:54:34.385Z,14.73
2018-11-20T19:57:12.923Z,14.60
2018-11-20T19:59:51.637Z,13.83
2018-11-20T20:02:40.291Z,13.33
2018-11-20T20:05:18.829Z,13.33
2018-11-20T20:07:57.028Z,13.40
2018-11-20T20:10:35.226Z,13.60
2018-11-20T20:13:14.056Z,13.27
2018-11-20T20:15:52.370Z,12.67
2018-11-20T20:18:30.981Z,12.83
2018-11-20T20:21:09.707Z,12.87
2018-11-20T20:23:47.950Z,12.70
2018-11-20T20:26:36.564Z,13.23
2018-11-20T20:29:15.288Z,12.80
2018-11-20T20:31:52.178Z,12.47
2018-11-20T20:34:30.576Z,11.73
2018-11-20T20:37:08.274Z,12.23
2018-11-20T20:39:50.660Z,12.50
2018-11-20T20:42:29.273Z,11.70
2018-11-20T20:45:07.792Z,12.20
2018-11-20T20:47:46.673Z,12.00
2018-11-20T20:50:25.851Z,11.80
2018-11-20T20:53:12.070Z,12.30
2018-11-20T20:55:52.612Z,11.37
2018-11-20T20:58:31.005Z,11.63
2018-11-20T21:01:09.748Z,11.70
2018-11-20T21:03:51.002Z,10.87
2018-11-20T21:06:32.550Z,11.20
2018-11-20T21:09:11.133Z,11.03
2018-11-20T21:11:49.941Z,10.13
2018-11-20T21:14:30.996Z,10.63
2018-11-20T21:17:09.427Z,10.70
2018-11-20T21:19:58.122Z,10.27
2018-11-20T21:22:36.218Z,10.27
2018-11-20T21:25:14.925Z,10.77
2018-11-20T21:27:53.921Z,10.37
2018-11-20T21:30:32.838Z,10.60
2018-11-20T21:33:11.332Z,10.27
2018-11-20T21:35:49.289Z,9.87
2018-11-20T21:38:34.035Z,10.27
2018-11-20T21:41:22.682Z,9.70
2018-11-20T21:44:11.541Z,9.40
2018-11-20T21:47:00.047Z,9.50
2018-11-20T21:49:41.762Z,10.33
2018-11-20T21:52:19.670Z,9.63
2018-11-20T21:54:58.300Z,9.60
2018-11-20T21:57:36.606Z,9.73
2018-11-20T22:00:21.764Z,9.73
2018-11-20T22:03:05.201Z,9.63
2018-11-20T22:05:43.613Z,8.73
2018-11-20T22:08:24.926Z,9.80
2018-11-20T22:10:59.756Z,9.63
2018-11-20T22:13:38.481Z,8.77
2018-11-20T22:16:16.328Z,9.40
2018-11-20T22:18:54.648Z,9.20
2018-11-20T22:21:33.395Z,8.63
2018-11-20T22:24:13.016Z,8.70
2018-11-20T22:26:49.028Z,8.20
2018-11-20T22:29:27.585Z,8.50
2018-11-20T22:32:05.798Z,8.73
2018-11-20T22:34:44.306Z,8.70
2018-11-20T22:37:24.772Z,8.70
2018-11-20T22:40:09.273Z,8.40
2018-11-20T22:42:47.700Z,8.03
2018-11-20T22:45:36.383Z,8.27
2018-11-20T22:48:14.680Z,7.80
2018-11-20T22:50:52.420Z,8.50
2018-11-20T22:53:30.408Z,8.10
2018-11-20T22:56:08.995Z,8.30
2018-11-20T22:58:49.029Z,7.87
2018-11-20T23:01:27.725Z,7.50
2018-11-20T23:04:09.965Z,7.50
2018-11-20T23:06:52.402Z,7.53
2018-11-20T23:09:22.045Z,8.00
2018-11-20T23:11:51.713Z,8.03
2018-11-20T23:14:22.923Z,7.50
2018-11-20T23:16:52.517Z,7.80
2018-11-20T23:19:22.149Z,8.13
2018-11-20T23:21:51.891Z,7.50
2018-11-20T23:24:21.661Z,6.93
2018-11-20T23:26:51.785Z,7.20
2018-11-20T23:29:21.229Z,7.50
2018-11-20T23:31:51.017Z,7.30
2018-11-20T23:34:20.300Z,7.30
2018-11-20T23:36:50.019Z,7.13
2018-11-20T23:39:19.501Z,7.67
2018-11-20T23:41:49.138Z,7.27
2018-11-20T23:44:18.515Z,6.63
2018-11-20T23:46:47.943Z,7.40
2018-11-20T23:49:17.329Z,7.00
2018-11-20T23:51:46.822Z,6.57
2018-11-20T23:54:16.088Z,6.73
2018-11-20T23:56:45.396Z,7.20
2018-11-20T23:59:15.112Z,6.90
